sensor_id;sensor_type;location;lat;lon;timestamp;pressure;altitude;pressure_sealevel;temperature;humidity
69223;BME280;56514;51.816;-0.026;2023-02-28T00:02:16;102770.72;;;2.74;68.88
69223;BME280;56514;51.816;-0.026;2023-02-28T00:05:27;102775.09;;;2.75;68.52
69223;BME280;56514;51.816;-0.026;2023-02-28T00:08:32;102771.59;;;2.75;68.33
69223;BME280;56514;51.816;-0.026;2023-02-28T00:11:40;102776.84;;;2.72;68.53
69223;BME280;56514;51.816;-0.026;2023-02-28T00:14:49;102780.31;;;2.71;68.19
69223;BME280;56514;51.816;-0.026;2023-02-28T00:17:58;102775.13;;;2.69;68.76
69223;BME280;56514;51.816;-0.026;2023-02-28T00:21:08;102766.44;;;2.66;68.39
69223;BME280;56514;51.816;-0.026;2023-02-28T00:24:18;102780.34;;;2.65;67.90
69223;BME280;56514;51.816;-0.026;2023-02-28T00:27:27;102775.13;;;2.62;67.66
69223;BME280;56514;51.816;-0.026;2023-02-28T00:30:36;102769.06;;;2.58;67.84
69223;BME280;56514;51.816;-0.026;2023-02-28T00:33:45;102774.28;;;2.54;67.63
69223;BME280;56514;51.816;-0.026;2023-02-28T00:36:30;102767.34;;;2.53;67.62
69223;BME280;56514;51.816;-0.026;2023-02-28T00:39:15;102764.75;;;2.50;68.15
69223;BME280;56514;51.816;-0.026;2023-02-28T00:42:05;102765.59;;;2.52;69.21
69223;BME280;56514;51.816;-0.026;2023-02-28T00:44:51;102769.94;;;2.53;69.47
69223;BME280;56514;51.816;-0.026;2023-02-28T00:47:36;102759.53;;;2.53;68.85
69223;BME280;56514;51.816;-0.026;2023-02-28T00:50:23;102768.19;;;2.52;69.59
69223;BME280;56514;51.816;-0.026;2023-02-28T00:53:08;102763.88;;;2.51;69.57
69223;BME280;56514;51.816;-0.026;2023-02-28T00:55:52;102769.97;;;2.51;69.35
69223;BME280;56514;51.816;-0.026;2023-02-28T00:58:37;102767.34;;;2.53;69.87
69223;BME280;56514;51.816;-0.026;2023-02-28T01:01:22;102773.41;;;2.53;69.47
69223;BME280;56514;51.816;-0.026;2023-02-28T01:04:07;102775.16;;;2.53;69.12
69223;BME280;56514;51.816;-0.026;2023-02-28T01:06:51;102775.16;;;2.48;69.39
69223;BME280;56514;51.816;-0.026;2023-02-28T01:09:36;102776.91;;;2.49;69.30
69223;BME280;56514;51.816;-0.026;2023-02-28T01:12:21;102776.03;;;2.49;70.08
69223;BME280;56514;51.816;-0.026;2023-02-28T01:15:06;102770.81;;;2.50;70.04
69223;BME280;56514;51.816;-0.026;2023-02-28T01:17:51;102771.69;;;2.48;70.59
69223;BME280;56514;51.816;-0.026;2023-02-28T01:20:37;102769.97;;;2.48;70.03
69223;BME280;56514;51.816;-0.026;2023-02-28T01:23:23;102766.50;;;2.45;70.46
69223;BME280;56514;51.816;-0.026;2023-02-28T01:26:11;102765.59;;;2.46;71.04
69223;BME280;56514;51.816;-0.026;2023-02-28T01:28:58;102764.75;;;2.47;71.23
69223;BME280;56514;51.816;-0.026;2023-02-28T01:31:43;102769.97;;;2.47;71.23
69223;BME280;56514;51.816;-0.026;2023-02-28T01:34:28;102773.41;;;2.47;70.91
69223;BME280;56514;51.816;-0.026;2023-02-28T01:37:13;102769.97;;;2.47;71.14
69223;BME280;56514;51.816;-0.026;2023-02-28T01:39:57;102776.91;;;2.48;71.06
69223;BME280;56514;51.816;-0.026;2023-02-28T01:42:42;102773.41;;;2.49;70.87
69223;BME280;56514;51.816;-0.026;2023-02-28T01:45:29;102780.38;;;2.47;70.89
69223;BME280;56514;51.816;-0.026;2023-02-28T01:48:15;102776.91;;;2.45;70.28
69223;BME280;56514;51.816;-0.026;2023-02-28T01:51:04;102768.22;;;2.43;70.26
69223;BME280;56514;51.816;-0.026;2023-02-28T01:54:01;102770.81;;;2.41;70.54
69223;BME280;56514;51.816;-0.026;2023-02-28T01:56:55;102763.03;;;2.40;70.26
69223;BME280;56514;51.816;-0.026;2023-02-28T02:00:02;102763.03;;;2.37;70.17
69223;BME280;56514;51.816;-0.026;2023-02-28T02:02:55;102763.03;;;2.37;70.44
69223;BME280;56514;51.816;-0.026;2023-02-28T02:05:41;102761.31;;;2.36;70.35
69223;BME280;56514;51.816;-0.026;2023-02-28T02:08:28;102760.41;;;2.35;70.72
69223;BME280;56514;51.816;-0.026;2023-02-28T02:11:17;102756.09;;;2.34;70.88
69223;BME280;56514;51.816;-0.026;2023-02-28T02:14:34;102760.44;;;2.34;71.01
69223;BME280;56514;51.816;-0.026;2023-02-28T02:17:32;102757.84;;;2.31;70.63
69223;BME280;56514;51.816;-0.026;2023-02-28T02:21:02;102763.91;;;2.30;70.36
69223;BME280;56514;51.816;-0.026;2023-02-28T02:27:08;102759.56;;;2.21;70.48
69223;BME280;56514;51.816;-0.026;2023-02-28T02:33:28;102759.56;;;2.18;70.76
69223;BME280;56514;51.816;-0.026;2023-02-28T02:36:28;102768.25;;;2.19;70.33
69223;BME280;56514;51.816;-0.026;2023-02-28T02:39:21;102772.59;;;2.20;70.62
69223;BME280;56514;51.816;-0.026;2023-02-28T02:42:18;102776.97;;;2.18;70.97
69223;BME280;56514;51.816;-0.026;2023-02-28T02:45:10;102778.69;;;2.17;71.16
69223;BME280;56514;51.816;-0.026;2023-02-28T02:47:58;102776.06;;;2.17;70.88
69223;BME280;56514;51.816;-0.026;2023-02-28T02:50:57;102777.81;;;2.15;71.24
69223;BME280;56514;51.816;-0.026;2023-02-28T02:53:50;102785.63;;;2.14;70.82
69223;BME280;56514;51.816;-0.026;2023-02-28T02:56:39;102767.41;;;2.14;70.91
69223;BME280;56514;51.816;-0.026;2023-02-28T02:59:28;102760.47;;;2.11;70.56
69223;BME280;56514;51.816;-0.026;2023-02-28T03:02:15;102775.22;;;2.08;71.13
69223;BME280;56514;51.816;-0.026;2023-02-28T03:05:07;102771.75;;;2.04;71.16
69223;BME280;56514;51.816;-0.026;2023-02-28T03:07:53;102764.81;;;2.02;71.47
69223;BME280;56514;51.816;-0.026;2023-02-28T03:23:16;102760.47;;;2.05;72.07
69223;BME280;56514;51.816;-0.026;2023-02-28T03:26:07;102761.34;;;2.06;72.01
69223;BME280;56514;51.816;-0.026;2023-02-28T03:29:12;102770.88;;;2.07;73.42
69223;BME280;56514;51.816;-0.026;2023-02-28T03:32:18;102770.00;;;2.12;74.08
69223;BME280;56514;51.816;-0.026;2023-02-28T03:35:18;102756.13;;;2.12;73.95
69223;BME280;56514;51.816;-0.026;2023-02-28T03:41:11;102766.53;;;2.15;74.63
69223;BME280;56514;51.816;-0.026;2023-02-28T03:44:04;102770.00;;;2.17;75.14
69223;BME280;56514;51.816;-0.026;2023-02-28T03:47:03;102763.94;;;2.16;74.91
69223;BME280;56514;51.816;-0.026;2023-02-28T03:49:59;102753.53;;;2.16;74.66
69223;BME280;56514;51.816;-0.026;2023-02-28T03:53:01;102759.59;;;2.17;74.83
69223;BME280;56514;51.816;-0.026;2023-02-28T03:55:55;102744.84;;;2.13;74.57
69223;BME280;56514;51.816;-0.026;2023-02-28T04:01:47;102765.66;;;2.11;74.34
69223;BME280;56514;51.816;-0.026;2023-02-28T04:04:33;102763.94;;;2.09;73.88
69223;BME280;56514;51.816;-0.026;2023-02-28T04:07:18;102766.56;;;2.07;73.86
69223;BME280;56514;51.816;-0.026;2023-02-28T04:10:05;102764.81;;;2.05;73.92
69223;BME280;56514;51.816;-0.026;2023-02-28T04:12:49;102759.59;;;2.06;73.88
69223;BME280;56514;51.816;-0.026;2023-02-28T04:15:34;102766.56;;;2.06;73.67
69223;BME280;56514;51.816;-0.026;2023-02-28T04:18:20;102763.06;;;2.05;74.03
69223;BME280;56514;51.816;-0.026;2023-02-28T04:21:06;102764.78;;;2.09;74.62
69223;BME280;56514;51.816;-0.026;2023-02-28T04:23:51;102774.34;;;2.12;75.78
69223;BME280;56514;51.816;-0.026;2023-02-28T04:26:36;102773.47;;;2.17;75.96
69223;BME280;56514;51.816;-0.026;2023-02-28T04:29:27;102773.47;;;2.19;76.52
69223;BME280;56514;51.816;-0.026;2023-02-28T04:32:12;102773.47;;;2.20;76.30
69223;BME280;56514;51.816;-0.026;2023-02-28T04:34:58;102775.19;;;2.20;76.71
69223;BME280;56514;51.816;-0.026;2023-02-28T04:37:42;102783.00;;;2.20;77.02
69223;BME280;56514;51.816;-0.026;2023-02-28T04:40:27;102780.41;;;2.20;76.66
69223;BME280;56514;51.816;-0.026;2023-02-28T04:43:12;102776.06;;;2.17;76.68
69223;BME280;56514;51.816;-0.026;2023-02-28T04:45:58;102779.56;;;2.16;76.97
69223;BME280;56514;51.816;-0.026;2023-02-28T04:48:45;102783.88;;;2.16;76.71
69223;BME280;56514;51.816;-0.026;2023-02-28T04:51:30;102779.56;;;2.16;77.19
69223;BME280;56514;51.816;-0.026;2023-02-28T04:54:15;102781.28;;;2.17;77.67
69223;BME280;56514;51.816;-0.026;2023-02-28T04:57:04;102787.38;;;2.19;77.55
69223;BME280;56514;51.816;-0.026;2023-02-28T04:59:49;102787.38;;;2.21;77.91
69223;BME280;56514;51.816;-0.026;2023-02-28T05:02:35;102789.97;;;2.22;77.95
69223;BME280;56514;51.816;-0.026;2023-02-28T05:05:19;102785.59;;;2.24;77.67
69223;BME280;56514;51.816;-0.026;2023-02-28T05:08:04;102787.38;;;2.21;78.28
69223;BME280;56514;51.816;-0.026;2023-02-28T05:10:50;102784.75;;;2.19;78.16
69223;BME280;56514;51.816;-0.026;2023-02-28T05:13:34;102789.09;;;2.19;78.58
69223;BME280;56514;51.816;-0.026;2023-02-28T05:16:20;102793.44;;;2.15;78.14
69223;BME280;56514;51.816;-0.026;2023-02-28T05:19:05;102785.63;;;2.11;78.05
69223;BME280;56514;51.816;-0.026;2023-02-28T05:21:54;102797.78;;;2.07;77.62
69223;BME280;56514;51.816;-0.026;2023-02-28T05:24:39;102789.09;;;2.04;77.98
69223;BME280;56514;51.816;-0.026;2023-02-28T05:27:24;102785.63;;;2.02;77.95
69223;BME280;56514;51.816;-0.026;2023-02-28T05:30:10;102794.31;;;2.01;77.97
69223;BME280;56514;51.816;-0.026;2023-02-28T05:32:56;102792.59;;;2.03;77.90
69223;BME280;56514;51.816;-0.026;2023-02-28T05:35:42;102793.44;;;2.09;78.06
69223;BME280;56514;51.816;-0.026;2023-02-28T05:38:30;102808.19;;;2.22;78.33
69223;BME280;56514;51.816;-0.026;2023-02-28T05:41:15;102806.44;;;2.35;78.14
69223;BME280;56514;51.816;-0.026;2023-02-28T05:44:03;102801.22;;;2.44;78.46
69223;BME280;56514;51.816;-0.026;2023-02-28T05:46:49;102797.75;;;2.49;78.66
69223;BME280;56514;51.816;-0.026;2023-02-28T05:49:33;102807.25;;;2.56;78.66
69223;BME280;56514;51.816;-0.026;2023-02-28T05:52:18;102799.44;;;2.59;78.84
69223;BME280;56514;51.816;-0.026;2023-02-28T05:55:05;102804.63;;;2.64;78.96
69223;BME280;56514;51.816;-0.026;2023-02-28T05:57:49;102804.63;;;2.67;79.41
69223;BME280;56514;51.816;-0.026;2023-02-28T06:00:34;102806.38;;;2.72;79.38
69223;BME280;56514;51.816;-0.026;2023-02-28T06:03:19;102813.31;;;2.75;79.10
69223;BME280;56514;51.816;-0.026;2023-02-28T06:06:04;102797.66;;;2.75;78.78
69223;BME280;56514;51.816;-0.026;2023-02-28T06:08:49;102801.16;;;2.77;78.76
69223;BME280;56514;51.816;-0.026;2023-02-28T06:11:34;102799.41;;;2.74;78.71
69223;BME280;56514;51.816;-0.026;2023-02-28T06:14:20;102799.41;;;2.77;78.78
69223;BME280;56514;51.816;-0.026;2023-02-28T06:17:05;102791.59;;;2.80;78.86
69223;BME280;56514;51.816;-0.026;2023-02-28T06:19:50;102795.03;;;2.81;78.80
69223;BME280;56514;51.816;-0.026;2023-02-28T06:22:35;102805.44;;;2.85;78.61
69223;BME280;56514;51.816;-0.026;2023-02-28T06:25:21;102801.09;;;2.90;78.08
69223;BME280;56514;51.816;-0.026;2023-02-28T06:28:06;102801.09;;;2.89;78.07
69223;BME280;56514;51.816;-0.026;2023-02-28T06:30:52;102804.56;;;2.92;77.95
69223;BME280;56514;51.816;-0.026;2023-02-28T06:33:38;102803.69;;;2.93;77.75
69223;BME280;56514;51.816;-0.026;2023-02-28T06:36:23;102801.97;;;2.94;77.94
69223;BME280;56514;51.816;-0.026;2023-02-28T06:39:10;102806.31;;;2.93;77.70
69223;BME280;56514;51.816;-0.026;2023-02-28T06:41:55;102804.56;;;2.97;77.78
69223;BME280;56514;51.816;-0.026;2023-02-28T06:44:40;102797.56;;;2.99;77.64
69223;BME280;56514;51.816;-0.026;2023-02-28T06:47:27;102808.88;;;3.02;77.08
69223;BME280;56514;51.816;-0.026;2023-02-28T06:50:13;102813.19;;;3.05;77.08
69223;BME280;56514;51.816;-0.026;2023-02-28T06:52:57;102807.97;;;3.05;76.91
69223;BME280;56514;51.816;-0.026;2023-02-28T06:55:42;102811.47;;;3.07;77.03
69223;BME280;56514;51.816;-0.026;2023-02-28T06:58:27;102804.50;;;3.10;77.24
69223;BME280;56514;51.816;-0.026;2023-02-28T07:01:13;102814.03;;;3.16;77.42
69223;BME280;56514;51.816;-0.026;2023-02-28T07:03:59;102812.28;;;3.19;77.20
69223;BME280;56514;51.816;-0.026;2023-02-28T07:06:44;102809.66;;;3.24;76.83
69223;BME280;56514;51.816;-0.026;2023-02-28T07:09:29;102819.16;;;3.31;76.69
69223;BME280;56514;51.816;-0.026;2023-02-28T07:12:14;102813.09;;;3.35;76.66
69223;BME280;56514;51.816;-0.026;2023-02-28T07:14:59;102806.97;;;3.39;76.54
69223;BME280;56514;51.816;-0.026;2023-02-28T07:17:45;102819.09;;;3.43;76.30
69223;BME280;56514;51.816;-0.026;2023-02-28T07:20:30;102818.22;;;3.47;76.12
69223;BME280;56514;51.816;-0.026;2023-02-28T07:23:15;102813.00;;;3.48;76.00
69223;BME280;56514;51.816;-0.026;2023-02-28T07:26:06;102802.56;;;3.50;76.16
69223;BME280;56514;51.816;-0.026;2023-02-28T07:28:51;102807.75;;;3.51;75.83
69223;BME280;56514;51.816;-0.026;2023-02-28T07:31:36;102802.56;;;3.50;75.78
69223;BME280;56514;51.816;-0.026;2023-02-28T07:34:21;102798.16;;;3.52;75.99
69223;BME280;56514;51.816;-0.026;2023-02-28T07:37:07;102796.44;;;3.52;75.47
69223;BME280;56514;51.816;-0.026;2023-02-28T07:39:51;102788.59;;;3.57;75.68
69223;BME280;56514;51.816;-0.026;2023-02-28T07:42:37;102792.09;;;3.56;76.03
69223;BME280;56514;51.816;-0.026;2023-02-28T07:45:22;102794.69;;;3.56;76.36
69223;BME280;56514;51.816;-0.026;2023-02-28T07:48:07;102794.63;;;3.63;76.09
69223;BME280;56514;51.816;-0.026;2023-02-28T07:50:58;102797.16;;;3.74;76.12
69223;BME280;56514;51.816;-0.026;2023-02-28T07:53:44;102816.22;;;3.88;75.85
69223;BME280;56514;51.816;-0.026;2023-02-28T07:56:29;102816.06;;;4.09;75.75
69223;BME280;56514;51.816;-0.026;2023-02-28T07:59:14;102812.34;;;4.31;75.73
69223;BME280;56514;51.816;-0.026;2023-02-28T08:01:58;102815.63;;;4.54;75.45
69223;BME280;56514;51.816;-0.026;2023-02-28T08:04:44;102818.91;;;4.74;74.88
69223;BME280;56514;51.816;-0.026;2023-02-28T08:07:29;102808.28;;;4.88;74.51
69223;BME280;56514;51.816;-0.026;2023-02-28T08:10:14;102815.06;;;5.07;74.34
69223;BME280;56514;51.816;-0.026;2023-02-28T08:12:59;102813.88;;;5.29;74.11
69223;BME280;56514;51.816;-0.026;2023-02-28T08:15:47;102817.91;;;5.56;74.06
69223;BME280;56514;51.816;-0.026;2023-02-28T08:18:32;102815.81;;;5.79;73.47
69223;BME280;56514;51.816;-0.026;2023-02-28T08:21:18;102819.88;;;5.99;73.65
69223;BME280;56514;51.816;-0.026;2023-02-28T08:24:05;102824.84;;;6.16;72.96
69223;BME280;56514;51.816;-0.026;2023-02-28T08:26:50;102818.53;;;6.29;72.83
69223;BME280;56514;51.816;-0.026;2023-02-28T08:29:38;102816.59;;;6.40;72.17
69223;BME280;56514;51.816;-0.026;2023-02-28T08:32:23;102812.09;;;6.45;72.18
69223;BME280;56514;51.816;-0.026;2023-02-28T08:35:09;102813.78;;;6.49;71.92
69223;BME280;56514;51.816;-0.026;2023-02-28T08:37:54;102811.13;;;6.52;71.67
69223;BME280;56514;51.816;-0.026;2023-02-28T08:40:39;102821.44;;;6.61;71.63
69223;BME280;56514;51.816;-0.026;2023-02-28T08:43:24;102809.00;;;6.72;71.47
69223;BME280;56514;51.816;-0.026;2023-02-28T08:46:13;102820.22;;;6.78;70.97
69223;BME280;56514;51.816;-0.026;2023-02-28T08:48:59;102820.03;;;6.87;70.81
69223;BME280;56514;51.816;-0.026;2023-02-28T08:51:46;102822.56;;;6.92;70.40
69223;BME280;56514;51.816;-0.026;2023-02-28T08:54:30;102814.53;;;6.99;70.43
69223;BME280;56514;51.816;-0.026;2023-02-28T08:57:17;102815.84;;;7.22;70.24
69223;BME280;56514;51.816;-0.026;2023-02-28T09:00:04;102819.09;;;7.34;69.97
69223;BME280;56514;51.816;-0.026;2023-02-28T09:02:50;102804.91;;;7.41;69.39
69223;BME280;56514;51.816;-0.026;2023-02-28T09:05:35;102800.34;;;7.51;69.26
69223;BME280;56514;51.816;-0.026;2023-02-28T09:08:19;102801.00;;;7.60;69.02
69223;BME280;56514;51.816;-0.026;2023-02-28T09:11:05;102800.75;;;7.71;68.94
69223;BME280;56514;51.816;-0.026;2023-02-28T09:13:50;102797.00;;;7.81;68.44
69223;BME280;56514;51.816;-0.026;2023-02-28T09:16:35;102795.31;;;7.78;68.14
69223;BME280;56514;51.816;-0.026;2023-02-28T09:19:20;102788.38;;;7.74;68.57
69223;BME280;56514;51.816;-0.026;2023-02-28T09:22:05;102792.50;;;7.86;68.47
69223;BME280;56514;51.816;-0.026;2023-02-28T09:24:50;102791.53;;;7.90;68.30
69223;BME280;56514;51.816;-0.026;2023-02-28T09:27:35;102783.75;;;7.85;68.08
69223;BME280;56514;51.816;-0.026;2023-02-28T09:30:21;102787.28;;;7.84;68.35
69223;BME280;56514;51.816;-0.026;2023-02-28T09:33:06;102783.19;;;8.08;68.28
69223;BME280;56514;51.816;-0.026;2023-02-28T09:35:58;102786.34;;;8.22;67.91
69223;BME280;56514;51.816;-0.026;2023-02-28T09:38:44;102791.50;;;8.26;67.99
69223;BME280;56514;51.816;-0.026;2023-02-28T09:41:40;102796.44;;;8.38;67.23
69223;BME280;56514;51.816;-0.026;2023-02-28T09:44:36;102791.94;;;8.08;67.55
69223;BME280;56514;51.816;-0.026;2023-02-28T09:53:20;102789.22;;;8.11;68.33
69223;BME280;56514;51.816;-0.026;2023-02-28T09:56:15;102791.38;;;8.31;68.14
69223;BME280;56514;51.816;-0.026;2023-02-28T10:02:59;102779.69;;;8.74;66.90
69223;BME280;56514;51.816;-0.026;2023-02-28T10:05:55;102780.88;;;8.93;67.10
69223;BME280;56514;51.816;-0.026;2023-02-28T10:09:05;102782.13;;;8.82;66.67
69223;BME280;56514;51.816;-0.026;2023-02-28T10:11:56;102784.31;;;8.66;67.49
69223;BME280;56514;51.816;-0.026;2023-02-28T10:14:47;102785.53;;;8.53;67.84
69223;BME280;56514;51.816;-0.026;2023-02-28T10:17:39;102788.16;;;8.53;68.09
69223;BME280;56514;51.816;-0.026;2023-02-28T10:20:26;102777.00;;;8.45;68.61
69223;BME280;56514;51.816;-0.026;2023-02-28T10:23:24;102777.38;;;8.62;68.33
69223;BME280;56514;51.816;-0.026;2023-02-28T10:26:17;102776.16;;;8.75;68.06
69223;BME280;56514;51.816;-0.026;2023-02-28T10:29:08;102782.25;;;9.07;67.60
69223;BME280;56514;51.816;-0.026;2023-02-28T10:31:53;102777.59;;;9.16;66.40
69223;BME280;56514;51.816;-0.026;2023-02-28T10:34:38;102775.41;;;9.30;66.73
69223;BME280;56514;51.816;-0.026;2023-02-28T10:37:23;102773.38;;;9.40;66.35
69223;BME280;56514;51.816;-0.026;2023-02-28T10:43:16;102766.53;;;9.33;66.01
69223;BME280;56514;51.816;-0.026;2023-02-28T10:49:05;102762.78;;;9.12;65.66
69223;BME280;56514;51.816;-0.026;2023-02-28T10:52:00;102766.75;;;8.96;66.25
69223;BME280;56514;51.816;-0.026;2023-02-28T10:54:45;102761.84;;;8.84;66.43
69223;BME280;56514;51.816;-0.026;2023-02-28T10:57:30;102759.31;;;8.81;66.59
69223;BME280;56514;51.816;-0.026;2023-02-28T11:03:23;102756.16;;;8.70;67.82
69223;BME280;56514;51.816;-0.026;2023-02-28T11:06:33;102761.19;;;8.77;67.78
69223;BME280;56514;51.816;-0.026;2023-02-28T11:09:29;102748.75;;;8.82;67.58
69223;BME280;56514;51.816;-0.026;2023-02-28T11:12:27;102760.94;;;8.86;67.44
69223;BME280;56514;51.816;-0.026;2023-02-28T11:15:28;102750.72;;;8.76;67.84
69223;BME280;56514;51.816;-0.026;2023-02-28T11:18:31;102751.03;;;8.64;67.84
69223;BME280;56514;51.816;-0.026;2023-02-28T11:21:28;102755.88;;;8.48;68.72
69223;BME280;56514;51.816;-0.026;2023-02-28T11:24:35;102746.34;;;8.43;69.70
69223;BME280;56514;51.816;-0.026;2023-02-28T11:27:40;102742.66;;;8.50;69.49
69223;BME280;56514;51.816;-0.026;2023-02-28T11:30:36;102730.72;;;8.69;68.55
69223;BME280;56514;51.816;-0.026;2023-02-28T11:36:20;102685.66;;;9.09;68.51
69223;BME280;56514;51.816;-0.026;2023-02-28T11:39:10;102670.63;;;9.40;66.19
69223;BME280;56514;51.816;-0.026;2023-02-28T11:42:08;102681.25;;;9.37;66.41
69223;BME280;56514;51.816;-0.026;2023-02-28T11:45:07;102690.16;;;9.05;66.51
69223;BME280;56514;51.816;-0.026;2023-02-28T11:54:12;102694.31;;;9.67;65.89
69223;BME280;56514;51.816;-0.026;2023-02-28T12:12:40;102690.41;;;9.79;65.46
69223;BME280;56514;51.816;-0.026;2023-02-28T12:15:56;102685.13;;;9.79;64.94
69223;BME280;56514;51.816;-0.026;2023-02-28T12:19:21;102687.16;;;9.71;64.95
69223;BME280;56514;51.816;-0.026;2023-02-28T12:22:40;102687.16;;;9.71;65.12
69223;BME280;56514;51.816;-0.026;2023-02-28T12:28:52;102676.59;;;9.45;64.90
69223;BME280;56514;51.816;-0.026;2023-02-28T12:31:46;102668.09;;;9.37;65.33
69223;BME280;56514;51.816;-0.026;2023-02-28T12:34:41;102661.81;;;9.41;65.70
69223;BME280;56514;51.816;-0.026;2023-02-28T12:37:32;102644.59;;;9.31;65.51
69223;BME280;56514;51.816;-0.026;2023-02-28T12:40:22;102647.06;;;9.35;65.55
69223;BME280;56514;51.816;-0.026;2023-02-28T12:43:09;102643.56;;;9.35;65.56
69223;BME280;56514;51.816;-0.026;2023-02-28T12:46:21;102634.38;;;9.46;65.79
69223;BME280;56514;51.816;-0.026;2023-02-28T12:49:19;102626.59;;;9.69;64.84
69223;BME280;56514;51.816;-0.026;2023-02-28T12:52:07;102629.41;;;9.89;64.66
69223;BME280;56514;51.816;-0.026;2023-02-28T12:58:01;102632.09;;;9.88;63.79
69223;BME280;56514;51.816;-0.026;2023-02-28T13:10:46;102609.59;;;9.78;63.22
69223;BME280;56514;51.816;-0.026;2023-02-28T13:13:32;102606.91;;;9.79;62.98
69223;BME280;56514;51.816;-0.026;2023-02-28T13:16:17;102601.97;;;9.70;63.54
69223;BME280;56514;51.816;-0.026;2023-02-28T13:19:10;102591.00;;;9.82;63.16
69223;BME280;56514;51.816;-0.026;2023-02-28T13:21:57;102593.03;;;10.23;62.32
69223;BME280;56514;51.816;-0.026;2023-02-28T13:24:54;102579.38;;;10.58;61.58
69223;BME280;56514;51.816;-0.026;2023-02-28T13:27:40;102575.63;;;10.64;59.93
69223;BME280;56514;51.816;-0.026;2023-02-28T13:36:43;102570.72;;;10.09;61.36
69223;BME280;56514;51.816;-0.026;2023-02-28T13:50:42;102546.03;;;9.87;62.20
69223;BME280;56514;51.816;-0.026;2023-02-28T13:54:00;102547.03;;;9.83;62.47
69223;BME280;56514;51.816;-0.026;2023-02-28T13:56:50;102549.78;;;9.80;62.92
69223;BME280;56514;51.816;-0.026;2023-02-28T14:00:21;102555.34;;;9.95;62.57
69223;BME280;56514;51.816;-0.026;2023-02-28T14:09:35;102549.47;;;9.89;61.92
69223;BME280;56514;51.816;-0.026;2023-02-28T14:15:55;102558.56;;;9.80;62.49
69223;BME280;56514;51.816;-0.026;2023-02-28T14:18:49;102573.38;;;9.83;61.97
69223;BME280;56514;51.816;-0.026;2023-02-28T14:21:36;102558.06;;;9.69;62.44
69223;BME280;56514;51.816;-0.026;2023-02-28T14:36:04;102564.75;;;9.79;62.29
69223;BME280;56514;51.816;-0.026;2023-02-28T14:39:00;102558.59;;;9.79;62.51
69223;BME280;56514;51.816;-0.026;2023-02-28T14:41:46;102561.47;;;9.73;62.71
69223;BME280;56514;51.816;-0.026;2023-02-28T14:44:31;102555.59;;;9.65;62.88
69223;BME280;56514;51.816;-0.026;2023-02-28T14:47:16;102554.63;;;9.67;63.07
69223;BME280;56514;51.816;-0.026;2023-02-28T14:50:05;102543.81;;;9.75;62.51
69223;BME280;56514;51.816;-0.026;2023-02-28T14:52:54;102540.84;;;9.84;63.03
69223;BME280;56514;51.816;-0.026;2023-02-28T14:55:44;102541.97;;;9.77;62.84
69223;BME280;56514;51.816;-0.026;2023-02-28T14:58:32;102543.72;;;9.78;62.59
69223;BME280;56514;51.816;-0.026;2023-02-28T15:01:20;102532.84;;;9.87;62.68
69223;BME280;56514;51.816;-0.026;2023-02-28T15:04:20;102537.94;;;9.91;62.72
69223;BME280;56514;51.816;-0.026;2023-02-28T15:07:14;102536.22;;;9.90;62.45
69223;BME280;56514;51.816;-0.026;2023-02-28T15:10:23;102526.75;;;9.85;62.85
69223;BME280;56514;51.816;-0.026;2023-02-28T15:13:12;102525.22;;;9.79;62.94
69223;BME280;56514;51.816;-0.026;2023-02-28T15:16:00;102523.31;;;9.83;63.11
69223;BME280;56514;51.816;-0.026;2023-02-28T15:21:36;102508.94;;;9.91;62.76
69223;BME280;56514;51.816;-0.026;2023-02-28T15:24:42;102515.94;;;9.92;62.94
69223;BME280;56514;51.816;-0.026;2023-02-28T15:27:30;102518.69;;;9.89;62.72
69223;BME280;56514;51.816;-0.026;2023-02-28T15:30:20;102525.56;;;9.93;62.86
69223;BME280;56514;51.816;-0.026;2023-02-28T15:33:25;102520.56;;;9.86;62.95
69223;BME280;56514;51.816;-0.026;2023-02-28T15:36:15;102503.13;;;9.82;63.20
69223;BME280;56514;51.816;-0.026;2023-02-28T15:39:23;102515.84;;;9.71;62.85
69223;BME280;56514;51.816;-0.026;2023-02-28T15:42:18;102528.50;;;9.61;63.02
69223;BME280;56514;51.816;-0.026;2023-02-28T15:45:04;102512.00;;;9.56;62.85
69223;BME280;56514;51.816;-0.026;2023-02-28T15:47:50;102511.38;;;9.48;63.18
69223;BME280;56514;51.816;-0.026;2023-02-28T15:50:35;102513.91;;;9.51;63.60
69223;BME280;56514;51.816;-0.026;2023-02-28T15:53:30;102511.44;;;9.47;63.25
69223;BME280;56514;51.816;-0.026;2023-02-28T15:56:25;102506.22;;;9.45;63.63
69223;BME280;56514;51.816;-0.026;2023-02-28T15:59:16;102513.41;;;9.40;63.54
69223;BME280;56514;51.816;-0.026;2023-02-28T16:07:43;102519.88;;;9.32;64.09
69223;BME280;56514;51.816;-0.026;2023-02-28T16:10:29;102520.91;;;9.28;64.28
69223;BME280;56514;51.816;-0.026;2023-02-28T16:13:14;102521.81;;;9.27;64.65
69223;BME280;56514;51.816;-0.026;2023-02-28T16:16:00;102518.28;;;9.28;64.43
69223;BME280;56514;51.816;-0.026;2023-02-28T16:18:46;102527.06;;;9.27;64.62
69223;BME280;56514;51.816;-0.026;2023-02-28T16:21:31;102530.63;;;9.26;64.38
69223;BME280;56514;51.816;-0.026;2023-02-28T16:24:16;102533.38;;;9.23;64.77
69223;BME280;56514;51.816;-0.026;2023-02-28T16:27:04;102530.72;;;9.23;64.81
69223;BME280;56514;51.816;-0.026;2023-02-28T16:29:49;102543.13;;;9.19;64.77
69223;BME280;56514;51.816;-0.026;2023-02-28T16:32:35;102542.25;;;9.20;64.66
69223;BME280;56514;51.816;-0.026;2023-02-28T16:35:22;102551.84;;;9.21;64.96
69223;BME280;56514;51.816;-0.026;2023-02-28T16:38:07;102546.44;;;9.26;64.82
69223;BME280;56514;51.816;-0.026;2023-02-28T16:40:53;102540.28;;;9.25;65.00
69223;BME280;56514;51.816;-0.026;2023-02-28T16:43:40;102543.03;;;9.22;64.95
69223;BME280;56514;51.816;-0.026;2023-02-28T16:46:44;102535.22;;;9.19;64.91
69223;BME280;56514;51.816;-0.026;2023-02-28T16:49:29;102538.22;;;9.09;65.18
69223;BME280;56514;51.816;-0.026;2023-02-28T16:52:14;102540.13;;;9.04;65.41
69223;BME280;56514;51.816;-0.026;2023-02-28T16:55:00;102535.94;;;8.98;65.67
69223;BME280;56514;51.816;-0.026;2023-02-28T16:57:50;102531.75;;;8.93;65.84
69223;BME280;56514;51.816;-0.026;2023-02-28T17:00:36;102546.56;;;8.95;65.58
69223;BME280;56514;51.816;-0.026;2023-02-28T17:03:24;102532.53;;;8.94;65.61